sensor_id;sensor_type;location;lat;lon;timestamp;temperature;humidity
59162;DHT22;44942;48.936;8.260;2023-04-24T00:01:52;22.30;54.70
59162;DHT22;44942;48.936;8.260;2023-04-24T00:06:53;22.10;54.20
59162;DHT22;44942;48.936;8.260;2023-04-24T00:11:57;22.00;54.00
59162;DHT22;44942;48.936;8.260;2023-04-24T00:16:58;22.00;53.70
59162;DHT22;44942;48.936;8.260;2023-04-24T00:21:58;21.90;53.40
59162;DHT22;44942;48.936;8.260;2023-04-24T00:26:59;21.90;53.30
59162;DHT22;44942;48.936;8.260;2023-04-24T00:32:01;21.90;53.20
59162;DHT22;44942;48.936;8.260;2023-04-24T00:37:01;21.90;53.10
59162;DHT22;44942;48.936;8.260;2023-04-24T00:42:02;22.00;53.30
59162;DHT22;44942;48.936;8.260;2023-04-24T00:47:03;22.00;53.50
59162;DHT22;44942;48.936;8.260;2023-04-24T00:52:04;22.00;53.60
59162;DHT22;44942;48.936;8.260;2023-04-24T00:57:07;22.10;53.80
59162;DHT22;44942;48.936;8.260;2023-04-24T01:02:09;22.00;53.80
59162;DHT22;44942;48.936;8.260;2023-04-24T01:07:11;22.10;54.00
59162;DHT22;44942;48.936;8.260;2023-04-24T01:12:12;22.10;54.10
59162;DHT22;44942;48.936;8.260;2023-04-24T01:17:12;22.10;54.20
59162;DHT22;44942;48.936;8.260;2023-04-24T01:22:14;22.10;54.20
59162;DHT22;44942;48.936;8.260;2023-04-24T01:27:15;22.10;54.30
59162;DHT22;44942;48.936;8.260;2023-04-24T01:32:15;22.10;54.40
59162;DHT22;44942;48.936;8.260;2023-04-24T01:37:16;22.10;54.40
59162;DHT22;44942;48.936;8.260;2023-04-24T01:42:19;22.10;54.50
59162;DHT22;44942;48.936;8.260;2023-04-24T01:47:20;22.10;54.60
59162;DHT22;44942;48.936;8.260;2023-04-24T01:52:21;22.10;54.70
59162;DHT22;44942;48.936;8.260;2023-04-24T01:57:22;22.10;54.60
59162;DHT22;44942;48.936;8.260;2023-04-24T02:02:23;22.00;54.50
59162;DHT22;44942;48.936;8.260;2023-04-24T02:07:30;22.00;54.30
59162;DHT22;44942;48.936;8.260;2023-04-24T02:12:30;22.00;54.20
59162;DHT22;44942;48.936;8.260;2023-04-24T02:17:31;22.00;54.40
59162;DHT22;44942;48.936;8.260;2023-04-24T02:22:31;22.10;54.50
59162;DHT22;44942;48.936;8.260;2023-04-24T02:27:32;22.10;54.60
59162;DHT22;44942;48.936;8.260;2023-04-24T02:32:32;22.10;54.60
59162;DHT22;44942;48.936;8.260;2023-04-24T02:37:34;22.10;54.60
59162;DHT22;44942;48.936;8.260;2023-04-24T02:42:34;22.10;54.60
59162;DHT22;44942;48.936;8.260;2023-04-24T02:47:35;22.10;54.60
59162;DHT22;44942;48.936;8.260;2023-04-24T02:52:36;22.10;54.70
59162;DHT22;44942;48.936;8.260;2023-04-24T02:57:36;22.10;54.70
59162;DHT22;44942;48.936;8.260;2023-04-24T03:02:37;22.00;54.50
59162;DHT22;44942;48.936;8.260;2023-04-24T03:07:37;21.90;54.30
59162;DHT22;44942;48.936;8.260;2023-04-24T03:12:38;21.80;54.00
59162;DHT22;44942;48.936;8.260;2023-04-24T03:17:39;21.70;53.80
59162;DHT22;44942;48.936;8.260;2023-04-24T03:22:39;21.80;53.80
59162;DHT22;44942;48.936;8.260;2023-04-24T03:27:40;21.90;53.80
59162;DHT22;44942;48.936;8.260;2023-04-24T03:32:40;21.90;54.00
59162;DHT22;44942;48.936;8.260;2023-04-24T03:37:41;21.90;54.10
59162;DHT22;44942;48.936;8.260;2023-04-24T03:42:41;21.90;54.10
59162;DHT22;44942;48.936;8.260;2023-04-24T03:47:42;21.90;54.10
59162;DHT22;44942;48.936;8.260;2023-04-24T03:52:42;22.00;54.20
59162;DHT22;44942;48.936;8.260;2023-04-24T03:57:43;22.00;54.20
59162;DHT22;44942;48.936;8.260;2023-04-24T04:02:44;22.00;54.30
59162;DHT22;44942;48.936;8.260;2023-04-24T04:07:44;22.00;54.30
59162;DHT22;44942;48.936;8.260;2023-04-24T04:12:45;22.00;54.40
59162;DHT22;44942;48.936;8.260;2023-04-24T04:17:46;22.00;54.50
59162;DHT22;44942;48.936;8.260;2023-04-24T04:22:47;22.00;54.50
59162;DHT22;44942;48.936;8.260;2023-04-24T04:27:47;22.00;54.60
59162;DHT22;44942;48.936;8.260;2023-04-24T04:32:48;22.00;54.60
59162;DHT22;44942;48.936;8.260;2023-04-24T04:37:49;22.00;54.60
59162;DHT22;44942;48.936;8.260;2023-04-24T04:42:49;22.00;54.70
59162;DHT22;44942;48.936;8.260;2023-04-24T04:47:53;22.00;54.70
59162;DHT22;44942;48.936;8.260;2023-04-24T04:52:55;22.00;54.70
59162;DHT22;44942;48.936;8.260;2023-04-24T04:57:56;22.00;54.70
59162;DHT22;44942;48.936;8.260;2023-04-24T05:02:56;21.90;54.40
59162;DHT22;44942;48.936;8.260;2023-04-24T05:07:57;21.90;54.20
59162;DHT22;44942;48.936;8.260;2023-04-24T05:12:57;21.90;54.20
59162;DHT22;44942;48.936;8.260;2023-04-24T05:17:58;21.90;54.20
59162;DHT22;44942;48.936;8.260;2023-04-24T05:22:59;21.90;54.30
59162;DHT22;44942;48.936;8.260;2023-04-24T05:27:59;21.90;54.40
59162;DHT22;44942;48.936;8.260;2023-04-24T05:33:00;22.00;54.50
59162;DHT22;44942;48.936;8.260;2023-04-24T05:38:00;22.00;54.50
59162;DHT22;44942;48.936;8.260;2023-04-24T05:43:01;22.00;54.60
59162;DHT22;44942;48.936;8.260;2023-04-24T05:48:03;22.00;54.60
59162;DHT22;44942;48.936;8.260;2023-04-24T05:53:04;22.10;54.70
59162;DHT22;44942;48.936;8.260;2023-04-24T05:58:04;22.00;54.60
59162;DHT22;44942;48.936;8.260;2023-04-24T06:03:05;22.00;54.40
59162;DHT22;44942;48.936;8.260;2023-04-24T06:08:06;22.00;54.50
59162;DHT22;44942;48.936;8.260;2023-04-24T06:13:07;22.00;54.50
59162;DHT22;44942;48.936;8.260;2023-04-24T06:18:07;21.90;53.40
59162;DHT22;44942;48.936;8.260;2023-04-24T06:23:10;21.60;51.50
59162;DHT22;44942;48.936;8.260;2023-04-24T06:28:12;21.30;50.60
59162;DHT22;44942;48.936;8.260;2023-04-24T06:33:12;21.20;50.00
59162;DHT22;44942;48.936;8.260;2023-04-24T06:38:13;21.00;49.60
59162;DHT22;44942;48.936;8.260;2023-04-24T06:43:14;20.80;49.40
59162;DHT22;44942;48.936;8.260;2023-04-24T06:48:15;20.70;49.10
59162;DHT22;44942;48.936;8.260;2023-04-24T06:53:15;20.60;48.80
59162;DHT22;44942;48.936;8.260;2023-04-24T06:58:16;20.70;49.10
59162;DHT22;44942;48.936;8.260;2023-04-24T07:03:17;20.80;49.60
59162;DHT22;44942;48.936;8.260;2023-04-24T07:08:17;20.90;50.10
59162;DHT22;44942;48.936;8.260;2023-04-24T07:13:18;21.00;50.50
59162;DHT22;44942;48.936;8.260;2023-04-24T07:18:20;21.10;50.90
59162;DHT22;44942;48.936;8.260;2023-04-24T07:23:21;21.10;51.20
59162;DHT22;44942;48.936;8.260;2023-04-24T07:28:21;21.20;51.60
59162;DHT22;44942;48.936;8.260;2023-04-24T07:33:22;21.20;51.80
59162;DHT22;44942;48.936;8.260;2023-04-24T07:38:23;21.20;52.00
59162;DHT22;44942;48.936;8.260;2023-04-24T07:43:26;21.20;52.10
59162;DHT22;44942;48.936;8.260;2023-04-24T07:48:27;21.30;52.30
59162;DHT22;44942;48.936;8.260;2023-04-24T07:53:27;21.30;52.40
59162;DHT22;44942;48.936;8.260;2023-04-24T07:58:28;21.30;52.50
59162;DHT22;44942;48.936;8.260;2023-04-24T08:03:28;21.30;52.60
59162;DHT22;44942;48.936;8.260;2023-04-24T08:08:29;21.30;52.70
59162;DHT22;44942;48.936;8.260;2023-04-24T08:13:30;21.30;52.70
59162;DHT22;44942;48.936;8.260;2023-04-24T08:18:30;21.30;52.80
59162;DHT22;44942;48.936;8.260;2023-04-24T08:23:31;21.30;52.80
59162;DHT22;44942;48.936;8.260;2023-04-24T08:28:31;21.40;53.00
59162;DHT22;44942;48.936;8.260;2023-04-24T08:33:35;21.40;53.10
59162;DHT22;44942;48.936;8.260;2023-04-24T08:38:35;21.40;53.10
59162;DHT22;44942;48.936;8.260;2023-04-24T08:43:37;21.40;53.10
59162;DHT22;44942;48.936;8.260;2023-04-24T08:48:39;21.40;53.10
59162;DHT22;44942;48.936;8.260;2023-04-24T08:53:40;21.40;53.10
59162;DHT22;44942;48.936;8.260;2023-04-24T08:58:41;21.40;53.20
59162;DHT22;44942;48.936;8.260;2023-04-24T09:03:42;21.50;53.20
59162;DHT22;44942;48.936;8.260;2023-04-24T09:08:45;21.50;53.30
59162;DHT22;44942;48.936;8.260;2023-04-24T09:13:48;21.50;53.30
59162;DHT22;44942;48.936;8.260;2023-04-24T09:18:48;21.50;53.30
59162;DHT22;44942;48.936;8.260;2023-04-24T09:24:00;21.50;53.30
59162;DHT22;44942;48.936;8.260;2023-04-24T09:29:03;21.50;53.30
59162;DHT22;44942;48.936;8.260;2023-04-24T09:34:04;21.50;53.40
59162;DHT22;44942;48.936;8.260;2023-04-24T09:39:12;21.50;53.50
59162;DHT22;44942;48.936;8.260;2023-04-24T09:44:16;21.50;53.50
59162;DHT22;44942;48.936;8.260;2023-04-24T09:49:22;21.50;53.50
59162;DHT22;44942;48.936;8.260;2023-04-24T09:54:23;21.50;53.50
59162;DHT22;44942;48.936;8.260;2023-04-24T09:59:25;21.50;53.50
59162;DHT22;44942;48.936;8.260;2023-04-24T10:04:27;21.50;53.50
59162;DHT22;44942;48.936;8.260;2023-04-24T10:09:27;21.50;53.50
59162;DHT22;44942;48.936;8.260;2023-04-24T10:14:29;21.50;53.60
59162;DHT22;44942;48.936;8.260;2023-04-24T10:19:30;21.50;54.30
59162;DHT22;44942;48.936;8.260;2023-04-24T10:24:33;21.50;53.50
59162;DHT22;44942;48.936;8.260;2023-04-24T10:29:35;21.50;53.50
59162;DHT22;44942;48.936;8.260;2023-04-24T10:34:36;21.60;53.50
59162;DHT22;44942;48.936;8.260;2023-04-24T10:39:37;21.50;53.50
59162;DHT22;44942;48.936;8.260;2023-04-24T10:44:39;21.50;53.50
59162;DHT22;44942;48.936;8.260;2023-04-24T10:49:40;21.50;53.50
59162;DHT22;44942;48.936;8.260;2023-04-24T10:54:44;21.60;53.50
59162;DHT22;44942;48.936;8.260;2023-04-24T10:59:46;21.50;53.50
59162;DHT22;44942;48.936;8.260;2023-04-24T11:04:51;21.60;53.50
59162;DHT22;44942;48.936;8.260;2023-04-24T11:09:58;21.60;53.40
59162;DHT22;44942;48.936;8.260;2023-04-24T11:15:01;21.60;53.40
59162;DHT22;44942;48.936;8.260;2023-04-24T11:20:07;21.50;53.40
59162;DHT22;44942;48.936;8.260;2023-04-24T11:25:10;21.50;53.40
59162;DHT22;44942;48.936;8.260;2023-04-24T11:30:12;21.50;53.40
59162;DHT22;44942;48.936;8.260;2023-04-24T11:35:19;21.50;53.40
59162;DHT22;44942;48.936;8.260;2023-04-24T11:40:21;21.50;53.40
59162;DHT22;44942;48.936;8.260;2023-04-24T11:45:28;21.50;53.40
59162;DHT22;44942;48.936;8.260;2023-04-24T11:50:29;21.50;53.40
59162;DHT22;44942;48.936;8.260;2023-04-24T11:55:30;21.50;53.50
59162;DHT22;44942;48.936;8.260;2023-04-24T12:00:31;21.50;53.40
59162;DHT22;44942;48.936;8.260;2023-04-24T12:05:34;21.50;53.40
59162;DHT22;44942;48.936;8.260;2023-04-24T12:10:35;21.50;53.40
59162;DHT22;44942;48.936;8.260;2023-04-24T12:15:40;21.50;53.40
59162;DHT22;44942;48.936;8.260;2023-04-24T12:20:40;21.50;53.40
59162;DHT22;44942;48.936;8.260;2023-04-24T12:25:41;21.50;53.40
59162;DHT22;44942;48.936;8.260;2023-04-24T12:30:44;21.50;53.40
59162;DHT22;44942;48.936;8.260;2023-04-24T12:35:51;21.50;54.10
59162;DHT22;44942;48.936;8.260;2023-04-24T12:41:04;21.50;53.30
59162;DHT22;44942;48.936;8.260;2023-04-24T12:46:05;21.50;53.40
59162;DHT22;44942;48.936;8.260;2023-04-24T12:51:06;21.50;53.30
59162;DHT22;44942;48.936;8.260;2023-04-24T12:56:06;21.50;53.40
59162;DHT22;44942;48.936;8.260;2023-04-24T13:01:07;21.50;53.40
59162;DHT22;44942;48.936;8.260;2023-04-24T13:06:07;21.50;53.40
59162;DHT22;44942;48.936;8.260;2023-04-24T13:11:08;21.50;53.40
59162;DHT22;44942;48.936;8.260;2023-04-24T13:16:09;21.50;53.40
59162;DHT22;44942;48.936;8.260;2023-04-24T13:21:09;21.50;53.40
59162;DHT22;44942;48.936;8.260;2023-04-24T13:26:10;21.60;53.40
59162;DHT22;44942;48.936;8.260;2023-04-24T13:31:11;21.60;53.40
59162;DHT22;44942;48.936;8.260;2023-04-24T13:36:11;21.60;54.10
59162;DHT22;44942;48.936;8.260;2023-04-24T13:41:12;21.60;53.40
59162;DHT22;44942;48.936;8.260;2023-04-24T13:46:12;21.60;53.40
59162;DHT22;44942;48.936;8.260;2023-04-24T13:51:13;21.70;53.40
59162;DHT22;44942;48.936;8.260;2023-04-24T13:56:14;21.70;53.40
59162;DHT22;44942;48.936;8.260;2023-04-24T14:01:15;21.70;53.50
59162;DHT22;44942;48.936;8.260;2023-04-24T14:06:16;21.70;53.50
59162;DHT22;44942;48.936;8.260;2023-04-24T14:11:17;21.70;54.20
59162;DHT22;44942;48.936;8.260;2023-04-24T14:16:18;21.70;53.50
59162;DHT22;44942;48.936;8.260;2023-04-24T14:21:19;21.70;53.40
59162;DHT22;44942;48.936;8.260;2023-04-24T14:26:19;21.70;53.50
59162;DHT22;44942;48.936;8.260;2023-04-24T14:31:20;21.70;53.60
59162;DHT22;44942;48.936;8.260;2023-04-24T14:36:21;21.70;53.60
59162;DHT22;44942;48.936;8.260;2023-04-24T14:41:21;21.70;53.60
59162;DHT22;44942;48.936;8.260;2023-04-24T14:46:22;21.70;53.50
59162;DHT22;44942;48.936;8.260;2023-04-24T14:51:22;21.70;53.50
59162;DHT22;44942;48.936;8.260;2023-04-24T14:56:23;21.70;53.50
59162;DHT22;44942;48.936;8.260;2023-04-24T15:01:24;21.70;53.50
59162;DHT22;44942;48.936;8.260;2023-04-24T15:06:24;21.70;53.50
59162;DHT22;44942;48.936;8.260;2023-04-24T15:11:25;21.70;53.50
59162;DHT22;44942;48.936;8.260;2023-04-24T15:16:26;21.70;53.50
59162;DHT22;44942;48.936;8.260;2023-04-24T15:21:26;21.70;53.50
59162;DHT22;44942;48.936;8.260;2023-04-24T15:26:27;21.70;53.50
59162;DHT22;44942;48.936;8.260;2023-04-24T15:31:28;21.70;53.60
59162;DHT22;44942;48.936;8.260;2023-04-24T15:36:28;21.70;53.60
59162;DHT22;44942;48.936;8.260;2023-04-24T15:41:29;21.70;53.60
59162;DHT22;44942;48.936;8.260;2023-04-24T15:46:34;21.70;53.60
59162;DHT22;44942;48.936;8.260;2023-04-24T15:51:35;21.70;53.60
59162;DHT22;44942;48.936;8.260;2023-04-24T15:56:36;21.70;53.70
59162;DHT22;44942;48.936;8.260;2023-04-24T16:01:37;21.70;53.60
59162;DHT22;44942;48.936;8.260;2023-04-24T16:06:37;21.70;53.60
59162;DHT22;44942;48.936;8.260;2023-04-24T16:11:38;21.70;53.60
59162;DHT22;44942;48.936;8.260;2023-04-24T16:16:39;21.70;53.60
59162;DHT22;44942;48.936;8.260;2023-04-24T16:21:39;21.70;53.50
59162;DHT22;44942;48.936;8.260;2023-04-24T16:26:40;21.70;53.50
59162;DHT22;44942;48.936;8.260;2023-04-24T16:31:41;21.70;53.40
59162;DHT22;44942;48.936;8.260;2023-04-24T16:36:41;21.70;53.40
59162;DHT22;44942;48.936;8.260;2023-04-24T16:41:42;21.70;53.40
59162;DHT22;44942;48.936;8.260;2023-04-24T16:46:43;21.70;53.40
59162;DHT22;44942;48.936;8.260;2023-04-24T16:51:43;21.70;53.40
59162;DHT22;44942;48.936;8.260;2023-04-24T16:56:44;21.70;53.40
59162;DHT22;44942;48.936;8.260;2023-04-24T17:01:45;21.70;54.00
59162;DHT22;44942;48.936;8.260;2023-04-24T17:06:46;21.70;53.40
59162;DHT22;44942;48.936;8.260;2023-04-24T17:11:49;21.70;53.40
59162;DHT22;44942;48.936;8.260;2023-04-24T17:16:50;21.70;53.40
59162;DHT22;44942;48.936;8.260;2023-04-24T17:21:51;21.70;53.40
59162;DHT22;44942;48.936;8.260;2023-04-24T17:26:52;21.70;53.40
59162;DHT22;44942;48.936;8.260;2023-04-24T17:31:53;21.70;53.40
59162;DHT22;44942;48.936;8.260;2023-04-24T17:36:53;21.70;53.40
59162;DHT22;44942;48.936;8.260;2023-04-24T17:41:54;21.70;53.40
59162;DHT22;44942;48.936;8.260;2023-04-24T17:46:55;21.70;53.40
59162;DHT22;44942;48.936;8.260;2023-04-24T17:51:55;21.70;53.40
59162;DHT22;44942;48.936;8.260;2023-04-24T17:56:56;21.70;53.40
59162;DHT22;44942;48.936;8.260;2023-04-24T18:01:57;21.70;53.40
59162;DHT22;44942;48.936;8.260;2023-04-24T18:06:57;21.70;53.50
59162;DHT22;44942;48.936;8.260;2023-04-24T18:11:58;21.70;53.40
59162;DHT22;44942;48.936;8.260;2023-04-24T18:16:58;21.70;53.40
59162;DHT22;44942;48.936;8.260;2023-04-24T18:21:59;21.60;53.30
59162;DHT22;44942;48.936;8.260;2023-04-24T18:26:59;21.70;53.40
59162;DHT22;44942;48.936;8.260;2023-04-24T18:32:01;21.60;53.30
59162;DHT22;44942;48.936;8.260;2023-04-24T18:37:03;21.70;53.40
59162;DHT22;44942;48.936;8.260;2023-04-24T18:42:04;21.60;53.40
59162;DHT22;44942;48.936;8.260;2023-04-24T18:47:04;21.60;53.50
59162;DHT22;44942;48.936;8.260;2023-04-24T18:52:05;21.60;53.30
59162;DHT22;44942;48.936;8.260;2023-04-24T18:57:05;21.70;53.40
59162;DHT22;44942;48.936;8.260;2023-04-24T19:02:06;21.60;53.40
59162;DHT22;44942;48.936;8.260;2023-04-24T19:07:07;21.60;53.40
59162;DHT22;44942;48.936;8.260;2023-04-24T19:12:07;21.60;53.50
59162;DHT22;44942;48.936;8.260;2023-04-24T19:17:08;21.60;53.40
59162;DHT22;44942;48.936;8.260;2023-04-24T19:22:10;21.60;53.40
59162;DHT22;44942;48.936;8.260;2023-04-24T19:27:11;21.60;53.40
59162;DHT22;44942;48.936;8.260;2023-04-24T19:32:12;21.60;53.40
59162;DHT22;44942;48.936;8.260;2023-04-24T19:37:12;21.60;53.40
59162;DHT22;44942;48.936;8.260;2023-04-24T19:42:13;21.60;53.40
59162;DHT22;44942;48.936;8.260;2023-04-24T19:47:13;21.60;53.50
59162;DHT22;44942;48.936;8.260;2023-04-24T19:52:14;21.60;53.50
59162;DHT22;44942;48.936;8.260;2023-04-24T19:57:15;21.60;53.60
59162;DHT22;44942;48.936;8.260;2023-04-24T20:02:15;21.60;53.70
59162;DHT22;44942;48.936;8.260;2023-04-24T20:07:16;21.60;53.80
59162;DHT22;44942;48.936;8.260;2023-04-24T20:12:17;21.60;53.80
59162;DHT22;44942;48.936;8.260;2023-04-24T20:17:18;21.70;53.90
59162;DHT22;44942;48.936;8.260;2023-04-24T20:22:19;21.60;53.70
59162;DHT22;44942;48.936;8.260;2023-04-24T20:27:19;21.60;53.70
59162;DHT22;44942;48.936;8.260;2023-04-24T20:32:20;21.60;53.70
59162;DHT22;44942;48.936;8.260;2023-04-24T20:37:21;21.60;53.80
59162;DHT22;44942;48.936;8.260;2023-04-24T20:42:21;21.70;53.90
59162;DHT22;44942;48.936;8.260;2023-04-24T20:47:22;21.70;53.90
59162;DHT22;44942;48.936;8.260;2023-04-24T20:52:22;21.70;53.90
59162;DHT22;44942;48.936;8.260;2023-04-24T20:57:23;21.70;53.90
59162;DHT22;44942;48.936;8.260;2023-04-24T21:02:24;21.60;53.50
59162;DHT22;44942;48.936;8.260;2023-04-24T21:07:24;21.60;53.30
59162;DHT22;44942;48.936;8.260;2023-04-24T21:12:25;21.60;53.30
59162;DHT22;44942;48.936;8.260;2023-04-24T21:17:26;21.60;53.40
59162;DHT22;44942;48.936;8.260;2023-04-24T21:22:26;21.70;53.50
59162;DHT22;44942;48.936;8.260;2023-04-24T21:27:27;21.60;53.50
59162;DHT22;44942;48.936;8.260;2023-04-24T21:32:28;21.70;53.60
59162;DHT22;44942;48.936;8.260;2023-04-24T21:37:28;21.70;53.60
59162;DHT22;44942;48.936;8.260;2023-04-24T21:42:30;21.70;53.70
59162;DHT22;44942;48.936;8.260;2023-04-24T21:47:31;21.70;53.70
59162;DHT22;44942;48.936;8.260;2023-04-24T21:52:31;21.70;53.70
59162;DHT22;44942;48.936;8.260;2023-04-24T21:57:32;21.70;53.80
59162;DHT22;44942;48.936;8.260;2023-04-24T22:02:34;21.60;53.40
59162;DHT22;44942;48.936;8.260;2023-04-24T22:07:34;21.60;53.10
59162;DHT22;44942;48.936;8.260;2023-04-24T22:12:35;21.60;53.10
59162;DHT22;44942;48.936;8.260;2023-04-24T22:17:36;21.70;53.30
59162;DHT22;44942;48.936;8.260;2023-04-24T22:22:38;21.70;53.40
59162;DHT22;44942;48.936;8.260;2023-04-24T22:27:38;21.70;53.50
59162;DHT22;44942;48.936;8.260;2023-04-24T22:32:39;21.70;53.60
59162;DHT22;44942;48.936;8.260;2023-04-24T22:37:40;21.70;53.60
59162;DHT22;44942;48.936;8.260;2023-04-24T22:42:40;21.70;53.60
59162;DHT22;44942;48.936;8.260;2023-04-24T22:47:41;21.70;53.70
59162;DHT22;44942;48.936;8.260;2023-04-24T22:52:42;21.70;53.70
59162;DHT22;44942;48.936;8.260;2023-04-24T22:57:43;21.70;53.60
59162;DHT22;44942;48.936;8.260;2023-04-24T23:02:44;21.60;53.20
59162;DHT22;44942;48.936;8.260;2023-04-24T23:07:44;21.50;53.00
59162;DHT22;44942;48.936;8.260;2023-04-24T23:12:45;21.50;52.90
59162;DHT22;44942;48.936;8.260;2023-04-24T23:17:46;21.60;53.10
59162;DHT22;44942;48.936;8.260;2023-04-24T23:22:46;21.60;53.10
59162;DHT22;44942;48.936;8.260;2023-04-24T23:27:47;21.60;53.30
59162;DHT22;44942;48.936;8.260;2023-04-24T23:32:47;21.60;53.30
59162;DHT22;44942;48.936;8.260;2023-04-24T23:37:48;21.60;53.40
59162;DHT22;44942;48.936;8.260;2023-04-24T23:42:49;21.60;53.40
59162;DHT22;44942;48.936;8.260;2023-04-24T23:47:49;21.60;53.50
59162;DHT22;44942;48.936;8.260;2023-04-24T23:52:50;21.60;53.60
59162;DHT22;44942;48.936;8.260;2023-04-24T23:57:51;21.60;53.70
